Lou del, Illinois
Current Conditions -  °F | °C
As of 5:53 PM on Sunday 25 Jan 2015 (Local Time) from KCPS Reporting Station
Overcast Overcast  
Wind Chill: 28°   Ceiling: 900
Heat Index: 38°   Visibility: 8mi
Dew Point: 35°   Wind: 18mph
Humidity: 89%   Direction: 350°N
Pressure: 29.83"   Gusts: NA
Location:  38.3034°N, 90.1358°W
Report Text: KCPS 252353Z 35016KT 8SM OVC009 03/02 A2983 RMK AO2 RAE04 PRESRR SLP103 P0000 60004 T00330017 10083 20033 53064
Loading
Personal Weather Stations






























Interactive Weather Map New forecast layout! Learn more

10-Day Weather Forecast

Advertisements
Track Severe Weather on mobile